createdAt,value
2022-09-30T00:00:35.610Z,97616.19
2022-09-30T00:03:37.929Z,97617.25
2022-09-30T00:06:39.714Z,97616.47
2022-09-30T00:09:41.673Z,97609.59
2022-09-30T00:12:44.423Z,97612.44
2022-09-30T00:15:48.171Z,97609.00
2022-09-30T00:18:52.412Z,97621.63
2022-09-30T00:21:54.460Z,97620.78
2022-09-30T00:24:56.040Z,97613.75
2022-09-30T00:27:58.841Z,97614.72
2022-09-30T00:31:05.571Z,97614.88
2022-09-30T00:34:07.647Z,97620.28
2022-09-30T00:37:12.112Z,97617.91
2022-09-30T00:40:13.860Z,97618.31
2022-09-30T00:43:17.029Z,97619.31
2022-09-30T00:46:27.342Z,97614.88
2022-09-30T00:49:30.608Z,97622.19
2022-09-30T00:52:33.504Z,97624.88
2022-09-30T00:55:39.896Z,97632.81
2022-09-30T00:58:44.848Z,97633.81
2022-09-30T01:01:49.815Z,97625.94
2022-09-30T01:04:52.421Z,97632.03
2022-09-30T01:07:56.873Z,97623.22
2022-09-30T01:11:07.834Z,97638.25
2022-09-30T01:14:13.319Z,97633.81
2022-09-30T01:17:20.878Z,97641.28
2022-09-30T01:20:49.978Z,97638.66
2022-09-30T01:24:08.850Z,97639.31
2022-09-30T01:27:27.220Z,97639.09
2022-09-30T01:30:45.740Z,97636.38
2022-09-30T01:33:53.706Z,97631.56
2022-09-30T01:37:08.155Z,97630.19
2022-09-30T01:40:14.952Z,97629.75
2022-09-30T01:43:23.907Z,97632.63
2022-09-30T01:46:34.269Z,97637.13
2022-09-30T01:49:40.475Z,97629.34
2022-09-30T01:52:47.789Z,97634.63
2022-09-30T01:55:52.888Z,97635.69
2022-09-30T01:58:57.704Z,97636.75
2022-09-30T02:02:04.800Z,97638.59
2022-09-30T02:05:10.594Z,97643.91
2022-09-30T02:08:17.355Z,97651.84
2022-09-30T02:11:22.886Z,97657.06
2022-09-30T02:14:28.871Z,97652.72
2022-09-30T02:17:35.055Z,97653.69
2022-09-30T02:20:39.283Z,97656.53
2022-09-30T02:23:43.002Z,97646.16
2022-09-30T02:26:48.054Z,97653.34
2022-09-30T02:29:56.288Z,97651.69
2022-09-30T02:33:00.718Z,97654.19
2022-09-30T02:36:08.034Z,97652.63
2022-09-30T02:39:13.958Z,97658.84
2022-09-30T02:42:20.487Z,97661.34
2022-09-30T02:45:25.686Z,97666.47
2022-09-30T02:48:32.978Z,97665.72
2022-09-30T02:51:40.424Z,97670.38
2022-09-30T02:54:47.608Z,97674.25
2022-09-30T02:57:56.129Z,97674.38
2022-09-30T03:00:58.419Z,97672.66
2022-09-30T03:04:04.263Z,97678.84
2022-09-30T03:07:06.214Z,97675.41
2022-09-30T03:10:13.123Z,97671.06
2022-09-30T03:13:22.259Z,97669.41
2022-09-30T03:16:31.387Z,97674.56
2022-09-30T03:19:42.719Z,97681.47
2022-09-30T03:22:52.635Z,97677.09
2022-09-30T03:26:02.248Z,97681.50
2022-09-30T03:29:11.421Z,97679.00
2022-09-30T03:32:20.464Z,97675.47
2022-09-30T03:35:29.227Z,97681.56
2022-09-30T03:38:38.716Z,97685.91
2022-09-30T03:41:42.082Z,97691.19
2022-09-30T03:44:56.554Z,97688.59
2022-09-30T03:48:01.633Z,97692.16
2022-09-30T03:51:08.630Z,97688.72
2022-09-30T03:54:11.998Z,97694.00
2022-09-30T03:57:15.153Z,97694.06
2022-09-30T04:00:20.335Z,97695.06
2022-09-30T04:03:23.588Z,97703.19
2022-09-30T04:06:26.920Z,97711.19
2022-09-30T04:09:28.696Z,97705.09
2022-09-30T04:12:31.651Z,97703.38
2022-09-30T04:15:33.671Z,97708.66
2022-09-30T04:18:36.055Z,97705.09
2022-09-30T04:21:39.510Z,97718.13
2022-09-30T04:24:41.291Z,97723.41
2022-09-30T04:27:45.196Z,97722.53
2022-09-30T04:30:50.249Z,97729.47
2022-09-30T04:33:54.478Z,97723.41
2022-09-30T04:36:58.584Z,97728.72
2022-09-30T04:40:02.117Z,97734.06
2022-09-30T04:43:05.259Z,97738.56
2022-09-30T04:46:07.995Z,97736.06
2022-09-30T04:49:10.220Z,97742.94
2022-09-30T04:52:13.916Z,97747.44
2022-09-30T04:55:15.921Z,97760.03
2022-09-30T04:58:18.087Z,97756.66
2022-09-30T05:01:20.275Z,97759.41
2022-09-30T05:04:22.312Z,97766.59
2022-09-30T05:07:26.934Z,97766.78
2022-09-30T05:10:31.866Z,97770.47
2022-09-30T05:13:35.326Z,97769.69
2022-09-30T05:16:37.631Z,97771.41
2022-09-30T05:19:39.453Z,97774.06
2022-09-30T05:22:43.971Z,97782.06
2022-09-30T05:25:46.207Z,97780.34
2022-09-30T05:28:49.242Z,97779.44
2022-09-30T05:31:51.387Z,97789.09
2022-09-30T05:34:54.783Z,97786.50
2022-09-30T05:37:59.939Z,97790.94
2022-09-30T05:41:08.747Z,97799.00
2022-09-30T05:44:10.492Z,97797.34
2022-09-30T05:47:13.824Z,97796.34
2022-09-30T05:50:16.633Z,97799.84
2022-09-30T05:53:21.236Z,97801.50
2022-09-30T05:56:22.998Z,97804.22
2022-09-30T05:59:29.033Z,97811.09
2022-09-30T06:02:30.935Z,97804.75
2022-09-30T06:05:32.784Z,97808.91
2022-09-30T06:08:37.023Z,97811.53
2022-09-30T06:11:39.313Z,97823.72
2022-09-30T06:14:41.149Z,97827.03
2022-09-30T06:17:43.407Z,97828.66
2022-09-30T06:20:45.202Z,97833.66
2022-09-30T06:24:01.438Z,97835.97
2022-09-30T06:27:06.805Z,97834.97
2022-09-30T06:30:09.819Z,97837.59
2022-09-30T06:33:12.681Z,97834.09
2022-09-30T06:36:14.444Z,97841.91
2022-09-30T06:39:17.616Z,97843.56
2022-09-30T06:42:19.423Z,97846.09
2022-09-30T06:45:31.369Z,97847.72
2022-09-30T06:48:38.544Z,97843.94
2022-09-30T06:51:41.009Z,97852.50
2022-09-30T06:54:45.196Z,97849.66
2022-09-30T06:57:48.102Z,97855.59
2022-09-30T07:00:56.798Z,97853.50
2022-09-30T07:03:58.679Z,97857.28
2022-09-30T07:07:02.244Z,97867.56
2022-09-30T07:10:06.009Z,97870.94
2022-09-30T07:13:08.320Z,97875.25
2022-09-30T07:16:12.391Z,97880.44
2022-09-30T07:19:14.798Z,97872.34
2022-09-30T07:22:29.802Z,97875.63
2022-09-30T07:25:33.301Z,97870.91
2022-09-30T07:28:36.128Z,97872.25
2022-09-30T07:31:38.331Z,97879.09
2022-09-30T07:34:43.813Z,97886.75
2022-09-30T07:37:49.304Z,97885.66
2022-09-30T07:41:04.963Z,97887.06
2022-09-30T07:44:09.658Z,97897.91
2022-09-30T07:47:11.834Z,97895.78
2022-09-30T07:50:16.233Z,97898.69
2022-09-30T07:53:20.513Z,97899.72
2022-09-30T07:56:24.877Z,97896.16
2022-09-30T07:59:28.166Z,97895.81
2022-09-30T08:02:30.196Z,97897.75
2022-09-30T08:05:32.162Z,97901.03
2022-09-30T08:08:33.992Z,97900.19
2022-09-30T08:11:38.422Z,97898.31
2022-09-30T08:14:44.855Z,97906.00
2022-09-30T08:17:47.411Z,97902.34
2022-09-30T08:20:49.820Z,97908.34
2022-09-30T08:23:51.889Z,97915.91
2022-09-30T08:26:55.481Z,97917.78
2022-09-30T08:29:59.279Z,97924.44
2022-09-30T08:33:03.139Z,97923.34
2022-09-30T08:36:07.877Z,97912.81
2022-09-30T08:39:11.296Z,97924.97
2022-09-30T08:42:47.066Z,97919.03
2022-09-30T08:45:55.022Z,97926.59
2022-09-30T08:49:05.849Z,97923.31
2022-09-30T08:52:12.898Z,97929.47
2022-09-30T08:55:23.962Z,97926.75
2022-09-30T08:58:28.828Z,97930.03
2022-09-30T09:01:32.922Z,97932.28
2022-09-30T09:04:35.048Z,97933.19
2022-09-30T09:07:40.901Z,97931.03
2022-09-30T09:10:44.830Z,97926.69
2022-09-30T09:13:51.871Z,97930.81
2022-09-30T09:17:00.425Z,97932.00
2022-09-30T09:20:08.408Z,97926.66
2022-09-30T09:23:12.588Z,97928.72
2022-09-30T09:26:15.280Z,97929.03
2022-09-30T09:29:32.709Z,97928.41
2022-09-30T09:32:35.389Z,97932.84
2022-09-30T09:35:42.605Z,97932.38
2022-09-30T09:38:54.897Z,97932.19
2022-09-30T09:41:59.216Z,97926.72
2022-09-30T09:45:06.424Z,97931.28
2022-09-30T09:48:09.293Z,97924.13
2022-09-30T09:51:14.748Z,97921.84
2022-09-30T09:54:19.287Z,97925.84
2022-09-30T09:57:32.761Z,97927.69
2022-09-30T10:00:51.175Z,97920.53
2022-09-30T10:04:09.644Z,97923.00
2022-09-30T10:07:13.578Z,97923.94
2022-09-30T10:10:23.918Z,97927.59
2022-09-30T10:13:29.262Z,97921.00
2022-09-30T10:16:35.754Z,97922.91
2022-09-30T10:19:37.544Z,97926.03
2022-09-30T10:22:39.753Z,97928.88
2022-09-30T10:25:54.737Z,97931.72
2022-09-30T10:28:57.643Z,97926.84
2022-09-30T10:32:02.560Z,97924.22
2022-09-30T10:35:06.454Z,97922.78
2022-09-30T10:38:12.910Z,97932.09
2022-09-30T10:41:21.670Z,97925.75
2022-09-30T10:44:24.942Z,97926.56
2022-09-30T10:47:36.408Z,97928.84
2022-09-30T10:50:38.957Z,97930.44
2022-09-30T10:53:45.210Z,97925.63
2022-09-30T10:56:52.469Z,97923.69
2022-09-30T10:59:58.434Z,97914.06
2022-09-30T11:03:08.042Z,97926.09
2022-09-30T11:06:12.962Z,97940.00
2022-09-30T11:09:19.641Z,97930.50
2022-09-30T11:12:26.160Z,97929.78
2022-09-30T11:15:32.130Z,97937.53
2022-09-30T11:18:41.201Z,97934.19
2022-09-30T11:21:46.858Z,97932.44
2022-09-30T11:24:52.510Z,97932.47
2022-09-30T11:28:02.031Z,97937.31
2022-09-30T11:31:14.944Z,97929.03
2022-09-30T11:34:30.074Z,97929.50
2022-09-30T11:37:40.832Z,97923.44
2022-09-30T11:40:48.148Z,97922.97
2022-09-30T11:43:55.485Z,97918.25
2022-09-30T11:47:02.740Z,97916.13
2022-09-30T11:50:20.087Z,97913.28
2022-09-30T11:53:26.143Z,97917.34
2022-09-30T11:56:34.424Z,97914.16
2022-09-30T11:59:39.673Z,97912.69
2022-09-30T12:02:44.792Z,97909.50
2022-09-30T12:05:49.814Z,97904.13
2022-09-30T12:08:58.707Z,97906.88
2022-09-30T12:12:02.285Z,97908.19
2022-09-30T12:15:06.940Z,97907.97
2022-09-30T12:18:11.312Z,97910.34
2022-09-30T12:21:18.691Z,97910.63
2022-09-30T12:24:24.985Z,97912.78
2022-09-30T12:27:31.669Z,97915.25
2022-09-30T12:30:34.916Z,97910.28
2022-09-30T12:33:43.388Z,97909.00
2022-09-30T12:37:09.423Z,97900.97
2022-09-30T12:40:27.406Z,97915.19
2022-09-30T12:43:44.339Z,97912.53
2022-09-30T12:46:55.482Z,97904.16
2022-09-30T12:49:59.291Z,97904.44
2022-09-30T12:53:09.828Z,97893.16
2022-09-30T12:56:14.023Z,97896.94
2022-09-30T12:59:19.487Z,97893.56
2022-09-30T13:02:36.228Z,97899.56
2022-09-30T13:05:51.998Z,97894.44
2022-09-30T13:09:11.891Z,97891.84
2022-09-30T13:12:25.323Z,97887.94
2022-09-30T13:15:41.158Z,97885.19
2022-09-30T13:19:02.202Z,97877.53
2022-09-30T13:22:24.166Z,97876.72
2022-09-30T13:25:26.405Z,97865.84
2022-09-30T13:28:31.158Z,97872.13
2022-09-30T13:31:53.839Z,97873.78
2022-09-30T13:34:57.048Z,97879.72
2022-09-30T13:38:11.053Z,97869.72
2022-09-30T13:41:20.731Z,97873.53
2022-09-30T13:44:31.915Z,97873.03
2022-09-30T13:47:36.469Z,97874.53
2022-09-30T13:50:45.626Z,97878.84
2022-09-30T13:53:51.295Z,97880.31
2022-09-30T13:56:54.128Z,97870.31
2022-09-30T14:00:04.810Z,97874.69
2022-09-30T14:03:13.494Z,97871.50
2022-09-30T14:06:20.467Z,97870.59
2022-09-30T14:09:35.254Z,97865.41
2022-09-30T14:12:47.293Z,97860.88
2022-09-30T14:16:07.261Z,97869.09
2022-09-30T14:19:18.924Z,97867.09
2022-09-30T14:22:25.895Z,97864.31
2022-09-30T14:25:32.115Z,97860.19
2022-09-30T14:28:42.474Z,97861.63
2022-09-30T14:31:44.686Z,97856.47
2022-09-30T14:34:49.041Z,97868.59
2022-09-30T14:37:52.833Z,97858.75
2022-09-30T14:40:57.070Z,97852.22
2022-09-30T14:44:12.399Z,97850.53
2022-09-30T14:47:23.636Z,97844.53
2022-09-30T14:50:28.558Z,97846.13
2022-09-30T14:53:31.900Z,97830.66
2022-09-30T14:56:35.666Z,97832.25
2022-09-30T14:59:41.028Z,97827.75
2022-09-30T15:02:46.970Z,97828.50
2022-09-30T15:05:50.579Z,97827.75
2022-09-30T15:09:00.026Z,97829.56
2022-09-30T15:12:05.839Z,97827.22
2022-09-30T15:15:24.138Z,97830.66
2022-09-30T15:18:29.513Z,97822.84
2022-09-30T15:21:34.513Z,97827.47
2022-09-30T15:24:37.191Z,97822.09
2022-09-30T15:27:39.072Z,97822.31
2022-09-30T15:30:43.901Z,97821.25
2022-09-30T15:33:46.068Z,97825.84
2022-09-30T15:36:56.699Z,97813.50
2022-09-30T15:40:19.072Z,97818.88
2022-09-30T15:43:33.361Z,97820.94
2022-09-30T15:46:40.214Z,97822.16
2022-09-30T15:49:48.231Z,97816.25
2022-09-30T15:52:59.667Z,97818.31
2022-09-30T15:56:20.050Z,97819.59
2022-09-30T15:59:22.915Z,97822.38
2022-09-30T16:02:25.598Z,97820.78
2022-09-30T16:05:27.600Z,97822.06
2022-09-30T16:08:33.383Z,97828.63
2022-09-30T16:11:44.777Z,97829.91
2022-09-30T16:14:51.944Z,97821.56
2022-09-30T16:17:54.567Z,97824.88
2022-09-30T16:20:58.305Z,97820.91
2022-09-30T16:24:04.249Z,97823.16
2022-09-30T16:27:20.040Z,97830.13
2022-09-30T16:30:28.669Z,97821.31
2022-09-30T16:33:30.816Z,97825.59
2022-09-30T16:36:33.026Z,97824.50
2022-09-30T16:39:36.569Z,97818.06
2022-09-30T16:42:39.082Z,97832.09
2022-09-30T16:45:52.842Z,97821.03
2022-09-30T16:48:55.215Z,97822.59
2022-09-30T16:51:57.186Z,97822.34
2022-09-30T16:55:00.581Z,97821.81
2022-09-30T16:58:05.388Z,97817.88
2022-09-30T17:01:12.685Z,97830.16
2022-09-30T17:04:17.087Z,97830.16
2022-09-30T17:07:23.600Z,97826.75
2022-09-30T17:10:29.477Z,97813.78
2022-09-30T17:13:32.391Z,97830.34
2022-09-30T17:16:34.922Z,97831.69
2022-09-30T17:19:38.390Z,97827.13
2022-09-30T17:22:41.008Z,97831.91
2022-09-30T17:25:45.018Z,97838.72
2022-09-30T17:28:46.991Z,97837.47
2022-09-30T17:31:53.398Z,97831.28
2022-09-30T17:34:55.161Z,97835.97
2022-09-30T17:38:06.468Z,97843.78
2022-09-30T17:41:32.068Z,97837.78
2022-09-30T17:44:34.106Z,97847.22
2022-09-30T17:47:39.692Z,97848.38
2022-09-30T17:50:42.422Z,97842.56
2022-09-30T17:53:47.244Z,97848.28
2022-09-30T17:57:00.805Z,97844.19
2022-09-30T18:00:03.028Z,97846.47
2022-09-30T18:03:07.172Z,97846.69
2022-09-30T18:06:16.821Z,97849.63
2022-09-30T18:09:19.516Z,97849.72
2022-09-30T18:12:24.516Z,97846.28
2022-09-30T18:15:28.100Z,97841.03
2022-09-30T18:18:31.008Z,97841.25
2022-09-30T18:21:33.741Z,97844.94
2022-09-30T18:24:58.614Z,97843.41
2022-09-30T18:28:02.875Z,97845.13
2022-09-30T18:31:06.725Z,97846.84
2022-09-30T18:34:09.896Z,97837.31
2022-09-30T18:37:13.338Z,97838.34
2022-09-30T18:40:17.320Z,97836.63
2022-09-30T18:43:23.295Z,97832.34
2022-09-30T18:46:31.136Z,97838.63
2022-09-30T18:49:41.437Z,97836.16
2022-09-30T18:52:46.431Z,97830.06
2022-09-30T18:55:51.428Z,97825.06
2022-09-30T18:58:59.865Z,97821.25
2022-09-30T19:02:04.390Z,97819.72
2022-09-30T19:05:11.084Z,97826.22
2022-09-30T19:08:14.757Z,97827.44
2022-09-30T19:11:17.659Z,97824.47
2022-09-30T19:14:20.926Z,97818.47
2022-09-30T19:17:23.309Z,97822.16
2022-09-30T19:20:25.537Z,97821.47
2022-09-30T19:23:30.435Z,97826.16
2022-09-30T19:26:33.423Z,97826.91
2022-09-30T19:29:43.720Z,97821.00
2022-09-30T19:32:56.952Z,97823.91
2022-09-30T19:36:13.958Z,97813.53
2022-09-30T19:39:16.903Z,97819.09
2022-09-30T19:42:26.872Z,97817.31
2022-09-30T19:45:34.600Z,97813.09
2022-09-30T19:48:39.084Z,97816.03
2022-09-30T19:51:44.362Z,97815.34
2022-09-30T19:54:47.043Z,97809.00
2022-09-30T19:57:48.998Z,97812.66
2022-09-30T20:00:56.397Z,97803.75
2022-09-30T20:04:00.308Z,97794.94
2022-09-30T20:07:02.357Z,97794.28
2022-09-30T20:10:04.511Z,97799.91
2022-09-30T20:13:06.776Z,97793.72
2022-09-30T20:16:11.653Z,97793.00
2022-09-30T20:19:13.645Z,97787.69
2022-09-30T20:22:15.623Z,97793.28
2022-09-30T20:25:17.521Z,97791.56
2022-09-30T20:28:20.734Z,97793.00
2022-09-30T20:31:24.766Z,97785.88
2022-09-30T20:34:27.463Z,97784.06
2022-09-30T20:37:29.955Z,97785.00
2022-09-30T20:40:33.011Z,97782.53
2022-09-30T20:43:35.656Z,97776.53
2022-09-30T20:46:40.188Z,97780.13
2022-09-30T20:49:42.041Z,97777.38
2022-09-30T20:52:47.203Z,97775.66
2022-09-30T20:55:49.278Z,97772.41
2022-09-30T20:58:53.221Z,97771.34
2022-09-30T21:01:56.465Z,97778.50
2022-09-30T21:04:58.400Z,97778.06
2022-09-30T21:08:03.545Z,97769.38
2022-09-30T21:11:05.615Z,97768.53
2022-09-30T21:14:07.730Z,97771.44
2022-09-30T21:17:11.108Z,97764.50
2022-09-30T21:20:13.618Z,97759.16
2022-09-30T21:23:19.041Z,97762.78
2022-09-30T21:26:21.034Z,97748.41
2022-09-30T21:29:23.655Z,97749.53
2022-09-30T21:32:27.178Z,97751.44
2022-09-30T21:35:29.064Z,97744.56
2022-09-30T21:38:32.051Z,97748.19
2022-09-30T21:41:34.615Z,97743.97
2022-09-30T21:44:36.448Z,97732.72
2022-09-30T21:47:39.752Z,97732.72
2022-09-30T21:50:41.448Z,97736.22
2022-09-30T21:53:45.826Z,97736.31
2022-09-30T21:56:48.676Z,97734.69
2022-09-30T21:59:51.038Z,97728.69
2022-09-30T22:02:54.221Z,97726.91
2022-09-30T22:05:57.645Z,97720.53
2022-09-30T22:09:01.736Z,97718.63
2022-09-30T22:12:08.749Z,97703.78
2022-09-30T22:15:10.784Z,97709.88
2022-09-30T22:18:16.635Z,97707.28
2022-09-30T22:21:18.358Z,97709.97
2022-09-30T22:24:21.502Z,97709.00
2022-09-30T22:27:23.725Z,97709.97
2022-09-30T22:30:27.794Z,97697.31
2022-09-30T22:33:50.134Z,97697.50
2022-09-30T22:37:11.243Z,97705.59
2022-09-30T22:40:12.914Z,97698.69
2022-09-30T22:43:15.435Z,97696.88
2022-09-30T22:46:17.214Z,97699.47
2022-09-30T22:49:23.095Z,97698.44
2022-09-30T22:52:25.167Z,97687.94
2022-09-30T22:55:27.126Z,97696.13
2022-09-30T22:58:29.004Z,97694.75
2022-09-30T23:01:32.120Z,97693.97
2022-09-30T23:04:36.526Z,97693.41
2022-09-30T23:07:38.263Z,97691.59
2022-09-30T23:10:45.673Z,97690.03
2022-09-30T23:13:47.669Z,97687.47
2022-09-30T23:16:49.913Z,97694.69
2022-09-30T23:19:53.509Z,97678.81
2022-09-30T23:22:55.488Z,97678.91
2022-09-30T23:26:01.364Z,97674.06
2022-09-30T23:29:04.886Z,97670.38
2022-09-30T23:32:06.683Z,97665.63
2022-09-30T23:35:10.532Z,97661.25
2022-09-30T23:38:13.020Z,97655.75
2022-09-30T23:41:14.981Z,97654.03
2022-09-30T23:44:18.912Z,97656.59
2022-09-30T23:47:21.651Z,97648.69
2022-09-30T23:50:28.045Z,97652.91
2022-09-30T23:53:30.338Z,97649.31
2022-09-30T23:56:32.379Z,97642.34
2022-09-30T23:59:34.542Z,97638.56
